Steward, IL (60553)

10:54 AM CST on February 27, 2017 (GMT -0600)
Rochelle | | Change Station

Elev 781 ft 41.90 °N, 89.08 °W | Updated 19 minutes ago

Clear
Clear
42 °F
Feels Like 38 °F
N
7
Wind Variable Wind from South

Today
High -- | Low -- °F
--% Chance of Precip.
Yesterday
High -- | Low -- °F
Precip. -- in
Pressure 30.14 in
Visibility 10.0 miles
Clouds Clear
Windchill 38 °F
Dew Point 37 °F
Humidity 80%
Rainfall 0.00 in
Snow Depth Not available.
6:33 AM 5:44 PM
New Moon, 1% visible
METAR KRPJ 271635Z AUTO 18006KT 10SM CLR 06/03 A3014 RMK AO2 T00580026
Pressure 30.14 in
Visibility 10.0 miles
Clouds Clear
Windchill 38 °F
Dew Point 37 °F
Humidity 80%
Rainfall 0.00 in
Snow Depth Not available.
6:33 AM 5:44 PM
New Moon, 1% visible
METAR KRPJ 271635Z AUTO 18006KT 10SM CLR 06/03 A3014 RMK AO2 T00580026

Get Your Daily Forecast Email!

Thanks for signing up!

Be on the lookout for a verification email in your inbox.

You'll start receiving the daily forecast at 8 AM.

×

10-Day Weather Forecast

Almanac

Astronomy

Feb. 27, 2017 Rise Set
Actual Time
Civil Twilight
Nautical Twilight
Astronomical Twilight
Moon
Length of Visible Light
Length of Day
Tomorrow will be .
, % of the Moon is Illuminated

Today's Extremes

State Highs State Lows

Community

WunderPhotos

Upload Photos

1,962,540 photos uploaded!

WunderBlog® & News

Nearby

Air Quality

  Air Quality AQ Index Pollutant
Not available.

Snow Depth

Station Depth Elevation

Earthquake Activity

City Distance Mag. Time & Date
Minimum magnitude displayed is 2.5.

Coastal Water Temperatures

Place Temperature

Stations

Nearby Weather Stations

Station Location Temp. Windchill Dew Point Humidity Wind Precip. Elev Updated Type
                   

Watches & Warnings

There are currently no watches in effect.